sensor_id;sensor_type;location;lat;lon;timestamp;pressure;altitude;pressure_sealevel;temperature;humidity
64683;BME280;51107;47.652;19.016;2022-11-25T00:01:32;99893.94;;;3.36;100.00
64683;BME280;51107;47.652;19.016;2022-11-25T00:04:01;99892.50;;;3.32;100.00
64683;BME280;51107;47.652;19.016;2022-11-25T00:06:31;99888.25;;;3.31;100.00
64683;BME280;51107;47.652;19.016;2022-11-25T00:09:06;99901.41;;;3.14;100.00
64683;BME280;51107;47.652;19.016;2022-11-25T00:11:36;99890.62;;;3.21;100.00
64683;BME280;51107;47.652;19.016;2022-11-25T00:14:06;99884.72;;;3.19;100.00
64683;BME280;51107;47.652;19.016;2022-11-25T00:16:34;99884.34;;;3.13;100.00
64683;BME280;51107;47.652;19.016;2022-11-25T00:19:03;99904.94;;;3.13;100.00
64683;BME280;51107;47.652;19.016;2022-11-25T00:21:32;99905.09;;;3.10;100.00
64683;BME280;51107;47.652;19.016;2022-11-25T00:24:04;99904.72;;;3.16;100.00
64683;BME280;51107;47.652;19.016;2022-11-25T00:26:34;99897.38;;;3.10;100.00
64683;BME280;51107;47.652;19.016;2022-11-25T00:29:05;99899.03;;;3.11;100.00
64683;BME280;51107;47.652;19.016;2022-11-25T00:31:37;99895.22;;;3.03;100.00
64683;BME280;51107;47.652;19.016;2022-11-25T00:34:09;99905.09;;;2.97;100.00
64683;BME280;51107;47.652;19.016;2022-11-25T00:36:38;99914.16;;;3.02;100.00
64683;BME280;51107;47.652;19.016;2022-11-25T00:39:12;99919.50;;;2.99;100.00
64683;BME280;51107;47.652;19.016;2022-11-25T00:41:41;99906.91;;;2.95;100.00
64683;BME280;51107;47.652;19.016;2022-11-25T00:44:28;99911.25;;;2.94;100.00
64683;BME280;51107;47.652;19.016;2022-11-25T00:49:38;99924.84;;;2.96;100.00
64683;BME280;51107;47.652;19.016;2022-11-25T00:52:09;99923.00;;;2.98;100.00
64683;BME280;51107;47.652;19.016;2022-11-25T00:54:40;99921.88;;;3.02;100.00
64683;BME280;51107;47.652;19.016;2022-11-25T00:57:09;99920.59;;;3.22;100.00
64683;BME280;51107;47.652;19.016;2022-11-25T00:59:38;99925.75;;;3.22;100.00
64683;BME280;51107;47.652;19.016;2022-11-25T01:02:06;99929.88;;;3.25;100.00
64683;BME280;51107;47.652;19.016;2022-11-25T01:04:35;99934.28;;;3.23;100.00
64683;BME280;51107;47.652;19.016;2022-11-25T01:07:04;99926.56;;;3.23;100.00
64683;BME280;51107;47.652;19.016;2022-11-25T01:09:34;99938.19;;;3.16;100.00
64683;BME280;51107;47.652;19.016;2022-11-25T01:12:04;99930.66;;;3.13;100.00
64683;BME280;51107;47.652;19.016;2022-11-25T01:14:33;99940.13;;;3.12;100.00
64683;BME280;51107;47.652;19.016;2022-11-25T01:17:02;99928.72;;;3.16;100.00
64683;BME280;51107;47.652;19.016;2022-11-25T01:19:34;99929.12;;;3.23;100.00
64683;BME280;51107;47.652;19.016;2022-11-25T01:22:07;99937.09;;;3.46;100.00
64683;BME280;51107;47.652;19.016;2022-11-25T01:24:36;99948.63;;;3.40;100.00
64683;BME280;51107;47.652;19.016;2022-11-25T01:27:04;99946.06;;;3.40;100.00
64683;BME280;51107;47.652;19.016;2022-11-25T01:29:33;99954.00;;;3.37;100.00
64683;BME280;51107;47.652;19.016;2022-11-25T01:32:01;99954.91;;;3.36;100.00
64683;BME280;51107;47.652;19.016;2022-11-25T01:34:29;99954.28;;;3.32;100.00
64683;BME280;51107;47.652;19.016;2022-11-25T01:36:59;99955.28;;;3.17;100.00
64683;BME280;51107;47.652;19.016;2022-11-25T01:39:28;99961.25;;;3.17;100.00
64683;BME280;51107;47.652;19.016;2022-11-25T01:42:00;99963.81;;;3.17;100.00
64683;BME280;51107;47.652;19.016;2022-11-25T01:44:30;99957.59;;;3.07;100.00
64683;BME280;51107;47.652;19.016;2022-11-25T01:47:17;99968.59;;;2.96;100.00
64683;BME280;51107;47.652;19.016;2022-11-25T01:50:02;99960.34;;;2.91;100.00
64683;BME280;51107;47.652;19.016;2022-11-25T01:52:36;99960.59;;;2.86;100.00
64683;BME280;51107;47.652;19.016;2022-11-25T01:55:19;99964.84;;;2.87;100.00
64683;BME280;51107;47.652;19.016;2022-11-25T02:00:29;99940.78;;;2.74;100.00
64683;BME280;51107;47.652;19.016;2022-11-25T02:02:58;99947.81;;;2.72;100.00
64683;BME280;51107;47.652;19.016;2022-11-25T02:05:41;99947.69;;;2.74;100.00
64683;BME280;51107;47.652;19.016;2022-11-25T02:08:14;99940.37;;;2.67;100.00
64683;BME280;51107;47.652;19.016;2022-11-25T02:10:43;99954.78;;;2.70;100.00
64683;BME280;51107;47.652;19.016;2022-11-25T02:13:12;99942.94;;;2.67;100.00
64683;BME280;51107;47.652;19.016;2022-11-25T02:15:40;99947.19;;;2.40;100.00
64683;BME280;51107;47.652;19.016;2022-11-25T02:18:08;99948.03;;;2.26;100.00
64683;BME280;51107;47.652;19.016;2022-11-25T02:20:37;99950.16;;;2.19;100.00
64683;BME280;51107;47.652;19.016;2022-11-25T02:25:45;99955.31;;;2.04;100.00
64683;BME280;51107;47.652;19.016;2022-11-25T02:28:18;99963.37;;;1.98;100.00
64683;BME280;51107;47.652;19.016;2022-11-25T02:30:48;99954.47;;;1.90;100.00
64683;BME280;51107;47.652;19.016;2022-11-25T02:33:18;99947.22;;;1.82;100.00
64683;BME280;51107;47.652;19.016;2022-11-25T02:35:47;99952.75;;;1.90;100.00
64683;BME280;51107;47.652;19.016;2022-11-25T02:41:13;99950.06;;;1.77;100.00
64683;BME280;51107;47.652;19.016;2022-11-25T02:43:44;99947.84;;;1.85;100.00
64683;BME280;51107;47.652;19.016;2022-11-25T02:46:15;99940.72;;;1.91;100.00
64683;BME280;51107;47.652;19.016;2022-11-25T02:48:50;99950.53;;;1.98;100.00
64683;BME280;51107;47.652;19.016;2022-11-25T02:51:38;99954.41;;;2.06;100.00
64683;BME280;51107;47.652;19.016;2022-11-25T02:54:09;99955.03;;;2.09;100.00
64683;BME280;51107;47.652;19.016;2022-11-25T02:56:37;99953.66;;;2.03;100.00
64683;BME280;51107;47.652;19.016;2022-11-25T02:59:08;99958.59;;;2.07;100.00
64683;BME280;51107;47.652;19.016;2022-11-25T03:01:37;99952.28;;;1.98;100.00
64683;BME280;51107;47.652;19.016;2022-11-25T03:04:06;99964.50;;;1.94;100.00
64683;BME280;51107;47.652;19.016;2022-11-25T03:06:35;99951.62;;;1.80;100.00
64683;BME280;51107;47.652;19.016;2022-11-25T03:09:03;99967.66;;;1.69;100.00
64683;BME280;51107;47.652;19.016;2022-11-25T03:11:32;99972.78;;;1.69;100.00
64683;BME280;51107;47.652;19.016;2022-11-25T03:14:20;99981.66;;;1.63;100.00
64683;BME280;51107;47.652;19.016;2022-11-25T03:16:48;99973.78;;;1.66;100.00
64683;BME280;51107;47.652;19.016;2022-11-25T03:19:17;99977.44;;;1.62;100.00
64683;BME280;51107;47.652;19.016;2022-11-25T03:21:45;99975.34;;;1.69;100.00
64683;BME280;51107;47.652;19.016;2022-11-25T03:24:13;99987.75;;;1.77;100.00
64683;BME280;51107;47.652;19.016;2022-11-25T03:26:42;100002.78;;;1.68;100.00
64683;BME280;51107;47.652;19.016;2022-11-25T03:29:10;100007.94;;;1.68;100.00
64683;BME280;51107;47.652;19.016;2022-11-25T03:31:39;100012.31;;;1.66;100.00
64683;BME280;51107;47.652;19.016;2022-11-25T03:34:08;100009.66;;;1.68;100.00
64683;BME280;51107;47.652;19.016;2022-11-25T03:36:37;100016.34;;;1.70;100.00
64683;BME280;51107;47.652;19.016;2022-11-25T03:39:08;100013.41;;;1.62;100.00
64683;BME280;51107;47.652;19.016;2022-11-25T03:41:36;100016.97;;;1.60;100.00
64683;BME280;51107;47.652;19.016;2022-11-25T03:44:05;100022.50;;;1.68;100.00
64683;BME280;51107;47.652;19.016;2022-11-25T03:46:33;100020.75;;;1.68;100.00
64683;BME280;51107;47.652;19.016;2022-11-25T03:49:02;100023.16;;;1.72;100.00
64683;BME280;51107;47.652;19.016;2022-11-25T03:51:31;100028.66;;;1.65;100.00
64683;BME280;51107;47.652;19.016;2022-11-25T03:53:59;100029.03;;;1.74;100.00
64683;BME280;51107;47.652;19.016;2022-11-25T03:56:28;100024.81;;;1.73;100.00
64683;BME280;51107;47.652;19.016;2022-11-25T03:58:59;100023.34;;;1.68;100.00
64683;BME280;51107;47.652;19.016;2022-11-25T04:01:28;100032.75;;;1.68;100.00
64683;BME280;51107;47.652;19.016;2022-11-25T04:03:57;100034.78;;;1.63;100.00
64683;BME280;51107;47.652;19.016;2022-11-25T04:06:25;100044.88;;;1.66;100.00
64683;BME280;51107;47.652;19.016;2022-11-25T04:08:54;100048.72;;;1.59;100.00
64683;BME280;51107;47.652;19.016;2022-11-25T04:11:23;100042.59;;;1.61;100.00
64683;BME280;51107;47.652;19.016;2022-11-25T04:14:15;100048.75;;;1.73;100.00
64683;BME280;51107;47.652;19.016;2022-11-25T04:16:44;100050.09;;;1.64;100.00
64683;BME280;51107;47.652;19.016;2022-11-25T04:19:13;100054.16;;;1.68;100.00
64683;BME280;51107;47.652;19.016;2022-11-25T04:21:42;100053.97;;;1.72;100.00
64683;BME280;51107;47.652;19.016;2022-11-25T04:24:16;100055.28;;;1.79;100.00
64683;BME280;51107;47.652;19.016;2022-11-25T04:26:44;100052.69;;;1.79;100.00
64683;BME280;51107;47.652;19.016;2022-11-25T04:29:13;100057.81;;;1.95;100.00
64683;BME280;51107;47.652;19.016;2022-11-25T04:31:42;100046.34;;;2.00;100.00
64683;BME280;51107;47.652;19.016;2022-11-25T04:34:10;100062.84;;;1.96;100.00
64683;BME280;51107;47.652;19.016;2022-11-25T04:36:39;100072.75;;;2.02;100.00
64683;BME280;51107;47.652;19.016;2022-11-25T04:39:07;100071.03;;;2.03;100.00
64683;BME280;51107;47.652;19.016;2022-11-25T04:41:36;100069.03;;;2.08;100.00
64683;BME280;51107;47.652;19.016;2022-11-25T04:44:04;100071.94;;;2.02;100.00
64683;BME280;51107;47.652;19.016;2022-11-25T04:46:36;100070.84;;;2.06;100.00
64683;BME280;51107;47.652;19.016;2022-11-25T04:49:06;100062.47;;;2.02;100.00
64683;BME280;51107;47.652;19.016;2022-11-25T04:51:34;100073.31;;;1.93;100.00
64683;BME280;51107;47.652;19.016;2022-11-25T04:54:03;100079.62;;;1.87;100.00
64683;BME280;51107;47.652;19.016;2022-11-25T04:56:32;100074.81;;;2.12;100.00
64683;BME280;51107;47.652;19.016;2022-11-25T04:59:00;100079.91;;;2.28;100.00
64683;BME280;51107;47.652;19.016;2022-11-25T05:01:48;100093.22;;;2.34;100.00
64683;BME280;51107;47.652;19.016;2022-11-25T05:04:17;100092.59;;;2.45;100.00
64683;BME280;51107;47.652;19.016;2022-11-25T05:06:45;100098.37;;;2.49;100.00
64683;BME280;51107;47.652;19.016;2022-11-25T05:09:13;100099.28;;;2.48;100.00
64683;BME280;51107;47.652;19.016;2022-11-25T05:11:43;100105.63;;;2.42;100.00
64683;BME280;51107;47.652;19.016;2022-11-25T05:14:12;100110.50;;;2.47;100.00
64683;BME280;51107;47.652;19.016;2022-11-25T05:16:40;100115.19;;;2.54;100.00
64683;BME280;51107;47.652;19.016;2022-11-25T05:19:09;100116.03;;;2.55;100.00
64683;BME280;51107;47.652;19.016;2022-11-25T05:21:38;100121.31;;;2.52;100.00
64683;BME280;51107;47.652;19.016;2022-11-25T05:24:07;100124.28;;;2.46;100.00
64683;BME280;51107;47.652;19.016;2022-11-25T05:26:35;100126.38;;;2.39;100.00
64683;BME280;51107;47.652;19.016;2022-11-25T05:29:05;100130.50;;;2.42;100.00
64683;BME280;51107;47.652;19.016;2022-11-25T05:31:33;100132.03;;;2.30;100.00
64683;BME280;51107;47.652;19.016;2022-11-25T05:34:03;100136.66;;;2.09;100.00
64683;BME280;51107;47.652;19.016;2022-11-25T05:36:32;100142.28;;;1.85;100.00
64683;BME280;51107;47.652;19.016;2022-11-25T05:39:00;100143.78;;;1.73;100.00
64683;BME280;51107;47.652;19.016;2022-11-25T05:41:30;100144.19;;;1.81;100.00
64683;BME280;51107;47.652;19.016;2022-11-25T05:43:58;100148.69;;;1.62;100.00
64683;BME280;51107;47.652;19.016;2022-11-25T05:46:28;100145.53;;;1.57;100.00
64683;BME280;51107;47.652;19.016;2022-11-25T05:48:56;100157.97;;;1.32;100.00
64683;BME280;51107;47.652;19.016;2022-11-25T05:51:25;100164.97;;;1.13;100.00
64683;BME280;51107;47.652;19.016;2022-11-25T05:53:55;100166.19;;;0.90;100.00
64683;BME280;51107;47.652;19.016;2022-11-25T05:56:26;100167.50;;;0.97;100.00
64683;BME280;51107;47.652;19.016;2022-11-25T05:58:55;100163.84;;;1.18;100.00
64683;BME280;51107;47.652;19.016;2022-11-25T06:01:26;100158.28;;;1.26;100.00
64683;BME280;51107;47.652;19.016;2022-11-25T06:03:59;100172.13;;;1.40;100.00
64683;BME280;51107;47.652;19.016;2022-11-25T06:06:27;100183.97;;;1.42;100.00
64683;BME280;51107;47.652;19.016;2022-11-25T06:08:56;100182.31;;;1.41;100.00
64683;BME280;51107;47.652;19.016;2022-11-25T06:11:24;100179.34;;;1.49;100.00
64683;BME280;51107;47.652;19.016;2022-11-25T06:13:55;100179.75;;;1.57;100.00
64683;BME280;51107;47.652;19.016;2022-11-25T06:16:25;100178.91;;;1.57;100.00
64683;BME280;51107;47.652;19.016;2022-11-25T06:18:55;100186.13;;;1.50;100.00
64683;BME280;51107;47.652;19.016;2022-11-25T06:21:23;100198.78;;;1.37;100.00
64683;BME280;51107;47.652;19.016;2022-11-25T06:23:52;100207.06;;;1.42;100.00
64683;BME280;51107;47.652;19.016;2022-11-25T06:26:21;100212.59;;;1.34;100.00
64683;BME280;51107;47.652;19.016;2022-11-25T06:28:54;100217.00;;;1.32;100.00
64683;BME280;51107;47.652;19.016;2022-11-25T06:31:24;100217.91;;;1.47;100.00
64683;BME280;51107;47.652;19.016;2022-11-25T06:33:53;100208.91;;;1.56;100.00
64683;BME280;51107;47.652;19.016;2022-11-25T06:36:22;100209.91;;;1.69;100.00
64683;BME280;51107;47.652;19.016;2022-11-25T06:38:52;100217.28;;;1.92;100.00
64683;BME280;51107;47.652;19.016;2022-11-25T06:41:21;100228.94;;;2.13;100.00
64683;BME280;51107;47.652;19.016;2022-11-25T06:43:49;100223.78;;;2.29;100.00
64683;BME280;51107;47.652;19.016;2022-11-25T06:46:18;100220.13;;;2.48;100.00
64683;BME280;51107;47.652;19.016;2022-11-25T06:48:52;100212.88;;;2.70;100.00
64683;BME280;51107;47.652;19.016;2022-11-25T06:51:21;100224.81;;;2.86;100.00
64683;BME280;51107;47.652;19.016;2022-11-25T06:53:51;100218.78;;;3.01;100.00
64683;BME280;51107;47.652;19.016;2022-11-25T06:56:23;100231.56;;;3.17;100.00
64683;BME280;51107;47.652;19.016;2022-11-25T06:58:52;100231.75;;;3.14;100.00
64683;BME280;51107;47.652;19.016;2022-11-25T07:01:27;100232.28;;;3.19;100.00
64683;BME280;51107;47.652;19.016;2022-11-25T07:04:01;100226.31;;;3.19;100.00
64683;BME280;51107;47.652;19.016;2022-11-25T07:06:31;100239.66;;;3.26;100.00
64683;BME280;51107;47.652;19.016;2022-11-25T07:09:00;100241.88;;;3.17;100.00
64683;BME280;51107;47.652;19.016;2022-11-25T07:11:32;100236.34;;;3.23;100.00
64683;BME280;51107;47.652;19.016;2022-11-25T07:14:06;100243.78;;;3.43;100.00
64683;BME280;51107;47.652;19.016;2022-11-25T07:16:36;100252.25;;;3.45;100.00
64683;BME280;51107;47.652;19.016;2022-11-25T07:19:05;100250.16;;;3.51;100.00
64683;BME280;51107;47.652;19.016;2022-11-25T07:21:33;100254.34;;;3.52;99.60
64683;BME280;51107;47.652;19.016;2022-11-25T07:24:05;100252.03;;;3.62;99.10
64683;BME280;51107;47.652;19.016;2022-11-25T07:26:35;100262.19;;;3.65;99.30
64683;BME280;51107;47.652;19.016;2022-11-25T07:29:07;100266.75;;;3.74;99.16
64683;BME280;51107;47.652;19.016;2022-11-25T07:31:57;100265.47;;;3.82;98.19
64683;BME280;51107;47.652;19.016;2022-11-25T07:34:25;100259.09;;;3.87;97.82
64683;BME280;51107;47.652;19.016;2022-11-25T07:36:53;100264.88;;;3.91;97.10
64683;BME280;51107;47.652;19.016;2022-11-25T07:39:22;100275.13;;;3.93;96.37
64683;BME280;51107;47.652;19.016;2022-11-25T07:41:52;100269.47;;;4.00;97.09
64683;BME280;51107;47.652;19.016;2022-11-25T07:44:21;100267.03;;;4.12;96.23
64683;BME280;51107;47.652;19.016;2022-11-25T07:46:50;100267.69;;;4.15;96.76
64683;BME280;51107;47.652;19.016;2022-11-25T07:49:21;100275.28;;;4.31;96.76
64683;BME280;51107;47.652;19.016;2022-11-25T07:51:54;100271.66;;;4.34;96.11
64683;BME280;51107;47.652;19.016;2022-11-25T07:54:24;100271.81;;;4.45;96.04
64683;BME280;51107;47.652;19.016;2022-11-25T07:56:52;100272.25;;;4.52;95.03
64683;BME280;51107;47.652;19.016;2022-11-25T07:59:22;100275.88;;;4.62;94.86
64683;BME280;51107;47.652;19.016;2022-11-25T08:01:52;100275.28;;;4.71;93.00
64683;BME280;51107;47.652;19.016;2022-11-25T08:04:21;100277.25;;;4.81;92.39
64683;BME280;51107;47.652;19.016;2022-11-25T08:06:51;100280.06;;;4.90;92.46
64683;BME280;51107;47.652;19.016;2022-11-25T08:09:21;100276.97;;;4.98;94.08
64683;BME280;51107;47.652;19.016;2022-11-25T08:11:50;100279.03;;;5.19;90.91
64683;BME280;51107;47.652;19.016;2022-11-25T08:14:18;100285.03;;;5.45;89.42
64683;BME280;51107;47.652;19.016;2022-11-25T08:16:47;100286.31;;;5.76;88.70
64683;BME280;51107;47.652;19.016;2022-11-25T08:19:16;100279.97;;;6.06;86.38
64683;BME280;51107;47.652;19.016;2022-11-25T08:21:45;100294.44;;;6.33;82.97
64683;BME280;51107;47.652;19.016;2022-11-25T08:24:18;100289.16;;;6.59;82.40
64683;BME280;51107;47.652;19.016;2022-11-25T08:26:47;100291.87;;;7.04;82.36
64683;BME280;51107;47.652;19.016;2022-11-25T08:29:17;100288.03;;;7.55;80.58
64683;BME280;51107;47.652;19.016;2022-11-25T08:31:46;100284.13;;;7.72;75.71
64683;BME280;51107;47.652;19.016;2022-11-25T08:34:20;100289.81;;;8.21;77.47
64683;BME280;51107;47.652;19.016;2022-11-25T08:36:49;100291.41;;;8.45;73.09
64683;BME280;51107;47.652;19.016;2022-11-25T08:39:18;100282.13;;;8.63;75.37
64683;BME280;51107;47.652;19.016;2022-11-25T08:42:07;100282.62;;;8.78;73.30
64683;BME280;51107;47.652;19.016;2022-11-25T08:44:35;100293.28;;;9.17;69.46
64683;BME280;51107;47.652;19.016;2022-11-25T08:47:04;100287.22;;;8.86;72.66
64683;BME280;51107;47.652;19.016;2022-11-25T08:49:32;100288.13;;;9.06;70.81
64683;BME280;51107;47.652;19.016;2022-11-25T08:52:08;100296.97;;;9.46;69.10
64683;BME280;51107;47.652;19.016;2022-11-25T08:54:37;100291.03;;;10.25;67.52
64683;BME280;51107;47.652;19.016;2022-11-25T08:57:05;100291.16;;;10.24;63.88
64683;BME280;51107;47.652;19.016;2022-11-25T08:59:34;100293.06;;;10.22;65.69
64683;BME280;51107;47.652;19.016;2022-11-25T09:02:04;100284.81;;;9.97;67.58
64683;BME280;51107;47.652;19.016;2022-11-25T09:04:32;100291.47;;;10.50;66.54
64683;BME280;51107;47.652;19.016;2022-11-25T09:07:02;100286.78;;;10.93;62.37
64683;BME280;51107;47.652;19.016;2022-11-25T09:09:32;100287.87;;;10.90;62.77
64683;BME280;51107;47.652;19.016;2022-11-25T09:12:01;100285.97;;;10.73;63.27
64683;BME280;51107;47.652;19.016;2022-11-25T09:14:29;100282.75;;;11.08;62.71
64683;BME280;51107;47.652;19.016;2022-11-25T09:16:57;100279.19;;;11.47;63.30
64683;BME280;51107;47.652;19.016;2022-11-25T09:19:27;100293.06;;;11.47;59.76
64683;BME280;51107;47.652;19.016;2022-11-25T09:21:55;100287.03;;;11.75;60.03
64683;BME280;51107;47.652;19.016;2022-11-25T09:24:24;100296.28;;;11.97;58.22
64683;BME280;51107;47.652;19.016;2022-11-25T09:26:52;100293.50;;;11.70;62.01
64683;BME280;51107;47.652;19.016;2022-11-25T09:29:21;100290.94;;;11.61;60.80
64683;BME280;51107;47.652;19.016;2022-11-25T09:31:50;100289.44;;;11.96;60.35
64683;BME280;51107;47.652;19.016;2022-11-25T09:34:22;100289.38;;;12.23;59.17
64683;BME280;51107;47.652;19.016;2022-11-25T09:36:50;100286.75;;;12.05;59.91
64683;BME280;51107;47.652;19.016;2022-11-25T09:39:18;100292.25;;;11.75;60.42
64683;BME280;51107;47.652;19.016;2022-11-25T09:42:10;100292.59;;;11.89;59.27
64683;BME280;51107;47.652;19.016;2022-11-25T09:45:15;100281.31;;;11.33;59.89
64683;BME280;51107;47.652;19.016;2022-11-25T09:48:31;100281.59;;;11.96;61.69
64683;BME280;51107;47.652;19.016;2022-11-25T09:51:17;100278.69;;;12.17;59.84
64683;BME280;51107;47.652;19.016;2022-11-25T09:53:52;100279.50;;;12.53;57.14
64683;BME280;51107;47.652;19.016;2022-11-25T09:56:27;100281.78;;;12.12;57.76
64683;BME280;51107;47.652;19.016;2022-11-25T09:59:18;100272.81;;;11.59;60.59
64683;BME280;51107;47.652;19.016;2022-11-25T10:02:05;100269.69;;;11.83;58.48
64683;BME280;51107;47.652;19.016;2022-11-25T10:04:43;100281.34;;;11.61;61.18
64683;BME280;51107;47.652;19.016;2022-11-25T10:07:29;100268.09;;;12.54;58.26
64683;BME280;51107;47.652;19.016;2022-11-25T10:10:04;100262.88;;;12.18;59.89
64683;BME280;51107;47.652;19.016;2022-11-25T10:12:37;100259.34;;;11.92;60.35
64683;BME280;51107;47.652;19.016;2022-11-25T10:15:16;100253.25;;;11.73;62.37
64683;BME280;51107;47.652;19.016;2022-11-25T10:17:48;100268.94;;;12.37;60.05
64683;BME280;51107;47.652;19.016;2022-11-25T10:20:34;100274.44;;;12.16;59.03
64683;BME280;51107;47.652;19.016;2022-11-25T10:23:33;100276.91;;;12.17;60.79
64683;BME280;51107;47.652;19.016;2022-11-25T10:26:30;100265.88;;;12.23;61.92
64683;BME280;51107;47.652;19.016;2022-11-25T10:31:42;100267.94;;;12.02;63.09
64683;BME280;51107;47.652;19.016;2022-11-25T10:36:47;100263.41;;;12.40;59.28
64683;BME280;51107;47.652;19.016;2022-11-25T10:39:25;100271.03;;;11.87;62.56
64683;BME280;51107;47.652;19.016;2022-11-25T10:42:18;100268.41;;;11.97;61.32
64683;BME280;51107;47.652;19.016;2022-11-25T10:44:47;100265.66;;;12.17;62.64
64683;BME280;51107;47.652;19.016;2022-11-25T10:47:33;100270.78;;;12.45;59.92
64683;BME280;51107;47.652;19.016;2022-11-25T10:50:15;100269.91;;;12.36;60.65
64683;BME280;51107;47.652;19.016;2022-11-25T10:56:08;100285.00;;;11.68;64.37
64683;BME280;51107;47.652;19.016;2022-11-25T10:58:38;100283.41;;;11.85;64.09
64683;BME280;51107;47.652;19.016;2022-11-25T11:01:20;100275.38;;;11.97;62.18
64683;BME280;51107;47.652;19.016;2022-11-25T11:03:55;100269.53;;;11.85;60.75
64683;BME280;51107;47.652;19.016;2022-11-25T11:06:38;100269.25;;;11.60;62.95
64683;BME280;51107;47.652;19.016;2022-11-25T11:09:35;100277.25;;;11.59;64.14
64683;BME280;51107;47.652;19.016;2022-11-25T11:12:20;100274.41;;;11.42;62.75
64683;BME280;51107;47.652;19.016;2022-11-25T11:14:51;100271.97;;;11.41;64.96
64683;BME280;51107;47.652;19.016;2022-11-25T11:17:32;100271.06;;;11.22;62.69
64683;BME280;51107;47.652;19.016;2022-11-25T11:22:47;100275.03;;;11.26;63.92
64683;BME280;51107;47.652;19.016;2022-11-25T11:27:48;100273.22;;;11.27;67.24
64683;BME280;51107;47.652;19.016;2022-11-25T11:30:19;100273.72;;;11.02;65.81
64683;BME280;51107;47.652;19.016;2022-11-25T11:33:27;100276.75;;;10.98;67.17
64683;BME280;51107;47.652;19.016;2022-11-25T11:39:07;100270.44;;;10.91;69.11
64683;BME280;51107;47.652;19.016;2022-11-25T11:50:34;100268.31;;;10.47;70.20
64683;BME280;51107;47.652;19.016;2022-11-25T11:56:20;100267.44;;;10.27;70.71
64683;BME280;51107;47.652;19.016;2022-11-25T12:10:09;100258.78;;;9.97;72.21
64683;BME280;51107;47.652;19.016;2022-11-25T12:15:47;100268.34;;;9.77;71.99
64683;BME280;51107;47.652;19.016;2022-11-25T12:21:05;100275.59;;;9.83;71.82
64683;BME280;51107;47.652;19.016;2022-11-25T12:23:50;100277.53;;;9.91;71.31
64683;BME280;51107;47.652;19.016;2022-11-25T12:26:35;100267.53;;;9.86;70.94
64683;BME280;51107;47.652;19.016;2022-11-25T12:29:11;100263.44;;;9.83;71.99
64683;BME280;51107;47.652;19.016;2022-11-25T12:31:52;100275.72;;;9.72;72.13
64683;BME280;51107;47.652;19.016;2022-11-25T12:34:50;100284.75;;;9.67;71.14
64683;BME280;51107;47.652;19.016;2022-11-25T12:37:31;100274.75;;;9.32;71.88
64683;BME280;51107;47.652;19.016;2022-11-25T12:40:32;100280.16;;;9.50;71.35
64683;BME280;51107;47.652;19.016;2022-11-25T12:48:53;100270.13;;;9.35;73.31
64683;BME280;51107;47.652;19.016;2022-11-25T12:54:36;100256.78;;;9.19;74.07
64683;BME280;51107;47.652;19.016;2022-11-25T12:57:16;100264.16;;;9.24;73.69
64683;BME280;51107;47.652;19.016;2022-11-25T13:05:58;100260.78;;;9.33;74.69
64683;BME280;51107;47.652;19.016;2022-11-25T13:14:03;100252.25;;;9.21;75.81
64683;BME280;51107;47.652;19.016;2022-11-25T13:16:41;100262.47;;;9.13;76.37
64683;BME280;51107;47.652;19.016;2022-11-25T13:19:17;100273.25;;;9.08;75.77
64683;BME280;51107;47.652;19.016;2022-11-25T13:24:38;100268.38;;;8.94;76.33
64683;BME280;51107;47.652;19.016;2022-11-25T13:27:53;100269.84;;;8.87;77.78
64683;BME280;51107;47.652;19.016;2022-11-25T13:30:47;100271.03;;;8.82;77.67
64683;BME280;51107;47.652;19.016;2022-11-25T13:36:21;100270.38;;;8.80;77.88
64683;BME280;51107;47.652;19.016;2022-11-25T13:46:45;100284.22;;;8.70;79.20
64683;BME280;51107;47.652;19.016;2022-11-25T13:49:35;100291.91;;;8.71;79.45
64683;BME280;51107;47.652;19.016;2022-11-25T13:54:49;100294.75;;;8.68;79.52
64683;BME280;51107;47.652;19.016;2022-11-25T13:57:32;100295.22;;;8.62;80.22
64683;BME280;51107;47.652;19.016;2022-11-25T14:00:41;100299.16;;;8.56;80.50
64683;BME280;51107;47.652;19.016;2022-11-25T14:23:05;100309.19;;;8.06;84.70
64683;BME280;51107;47.652;19.016;2022-11-25T14:25:32;100318.16;;;8.02;85.07
64683;BME280;51107;47.652;19.016;2022-11-25T14:30:52;100317.25;;;7.80;85.58
64683;BME280;51107;47.652;19.016;2022-11-25T14:33:25;100310.28;;;7.80;86.15
64683;BME280;51107;47.652;19.016;2022-11-25T14:36:11;100319.84;;;7.69;86.88
64683;BME280;51107;47.652;19.016;2022-11-25T14:41:17;100315.37;;;7.48;88.68
64683;BME280;51107;47.652;19.016;2022-11-25T14:43:51;100322.78;;;7.41;88.65
64683;BME280;51107;47.652;19.016;2022-11-25T14:46:22;100323.34;;;7.34;89.05
64683;BME280;51107;47.652;19.016;2022-11-25T14:49:02;100325.13;;;7.22;89.35
64683;BME280;51107;47.652;19.016;2022-11-25T14:51:41;100327.09;;;7.07;90.17
64683;BME280;51107;47.652;19.016;2022-11-25T14:54:09;100326.84;;;6.99;90.45
64683;BME280;51107;47.652;19.016;2022-11-25T14:56:38;100330.12;;;7.01;90.45
64683;BME280;51107;47.652;19.016;2022-11-25T14:59:09;100337.75;;;6.91;90.87
64683;BME280;51107;47.652;19.016;2022-11-25T15:01:50;100340.06;;;6.83;91.01
64683;BME280;51107;47.652;19.016;2022-11-25T15:04:21;100334.63;;;6.74;91.77
64683;BME280;51107;47.652;19.016;2022-11-25T15:06:54;100336.13;;;6.66;92.69
64683;BME280;51107;47.652;19.016;2022-11-25T15:09:30;100345.91;;;6.73;92.57
64683;BME280;51107;47.652;19.016;2022-11-25T15:12:01;100336.59;;;6.71;92.69
64683;BME280;51107;47.652;19.016;2022-11-25T15:14:33;100343.28;;;6.62;92.68